Portada
METAR-TAF:

METAR-TAF

Aeropuertos :

Pau, Francia

Aeropuerto de Pau-Pirineos

latitud: 43-23N, longitud: 000-25W, altitud: 188 m

Observación

El informe se hizo hace 30 minutos, a las 02:30 UTC
Viento 2 kt del este
Temperatura 2°C
Humedad 100%
Presión 1027 hPa
Visibilidad: 6000 m

METAR: LFBP 180230Z AUTO 09002KT 6000 NSC 02/02 Q1027 TEMPO 3000 BR

Hora: 04:00 (03:00 UTC)

Pronóstico

El informe se hizo hace 2 horas y 10 minutos, a las 00:50 UTC
Pronóstico válido del 18 a las 00 UTC al 18 a las 24 UTC
Viento 2 kt con dirección variable
Visibilidad 10 km o más
Nubes dispersas a una altura de 4000 ft
Temporalmente
del 18 a las 00 UTC al 18 a las 06 UTC
Visibilidad: 3000 m
neblina
Temporalmente
del 18 a las 18 UTC al 18 a las 24 UTC
Visibilidad: 3000 m
Cielo cubierto a una altura de 1000 ft
lluvia

TAF: LFBP 180050Z 1800/1824 VRB02KT 9999 SCT040 TEMPO 1800/1806 3000 BR TEMPO 1818/1824 3000 RA OVC010

Observaciones y pronósticos meteorológicos de más de 4000 aeropuertos (mensajes METAR y TAF).

Los puntos amarillos y rojos representan las estaciones disponibles.

Ponga el ratón en el punto deseado para ver el nombre de la estación.

Haga clic para ver las observaciones y los pronósticos meteorológicos.

Para cambiar el mapa : haga clic en los botones verdes con una cruz de color negro para hacer un zoom, en el botón verde con un guión para alejar o en las flechas verdes para mapas adyacentes.


METAR-TAF: